Time;durP1;ratioP1;P1;durP2;ratioP2;P2;SDS_P1;SDS_P2;PMS_P1;PMS_P2;Temp;Humidity;BMP_temperature;BMP_pressure;BME280_temperature;BME280_humidity;BME280_pressure;Samples;Min_cycle;Max_cycle;Signal;HPM_P1;HPM_P2
2022/06/01 00:02:09;;;;;;;5.93;3.95;;;;;;;17.52;58.20;94015.34;4980992;28;20486;-75
2022/06/01 00:04:35;;;;;;;7.15;3.53;;;;;;;17.39;58.92;94012.00;4982380;28;20110;-76
2022/06/01 00:07:00;;;;;;;6.00;4.75;;;;;;;17.45;58.88;94015.22;4984644;28;20125;-76
2022/06/01 00:09:26;;;;;;;6.15;4.18;;;;;;;17.41;59.07;94017.81;4980288;28;20816;-76
2022/06/01 00:11:52;;;;;;;4.68;3.95;;;;;;;17.38;58.77;94005.06;4982827;28;20510;-76
2022/06/01 00:14:17;;;;;;;8.25;4.07;;;;;;;17.33;59.01;94001.88;4984012;28;20038;-76
2022/06/01 00:16:42;;;;;;;8.55;4.03;;;;;;;17.43;58.99;94028.22;4972017;28;20454;-76
2022/06/01 00:19:09;;;;;;;5.30;4.32;;;;;;;17.31;59.17;94009.50;4983418;28;20682;-76
2022/06/01 00:22:11;;;;;;;5.55;4.93;;;;;;;17.43;58.93;94030.91;4978347;28;20042;-76
2022/06/01 00:24:20;;;;;;;9.73;3.67;;;;;;;17.29;58.95;94012.56;4985293;28;20038;-76
2022/06/01 00:26:48;;;;;;;8.43;4.38;;;;;;;17.44;58.83;94035.16;4985745;28;20049;-76
2022/06/01 00:29:13;;;;;;;5.35;4.40;;;;;;;17.34;59.03;94035.69;4985164;28;20070;-76
2022/06/01 00:31:39;;;;;;;3.80;3.35;;;;;;;17.37;59.11;94037.69;4985235;28;20054;-76
2022/06/01 00:34:04;;;;;;;5.68;3.45;;;;;;;17.28;58.83;94020.97;4974447;28;20047;-77
2022/06/01 00:36:30;;;;;;;7.45;4.82;;;;;;;17.18;58.86;94009.63;4981846;28;20464;-76
2022/06/01 00:38:55;;;;;;;7.50;3.92;;;;;;;17.32;59.10;94033.34;4985159;28;20416;-76
2022/06/01 00:41:21;;;;;;;4.50;3.47;;;;;;;17.34;59.12;94030.31;4985231;28;20079;-76
2022/06/01 00:43:46;;;;;;;10.07;4.32;;;;;;;17.14;58.64;93989.16;4987244;28;20033;-76
2022/06/01 00:46:13;;;;;;;7.30;3.80;;;;;;;17.30;59.09;94027.56;4981814;28;20100;-75
2022/06/01 00:48:43;;;;;;;6.15;3.72;;;;;;;17.17;58.95;93997.31;4980847;28;20054;-75
2022/06/01 00:51:12;;;;;;;8.95;4.50;;;;;;;17.32;58.73;94017.22;4987031;28;20072;-76
2022/06/01 00:53:40;;;;;;;6.63;3.75;;;;;;;17.31;58.70;94020.25;4979338;28;20392;-76
2022/06/01 00:56:11;;;;;;;7.28;3.50;;;;;;;17.31;59.04;94026.41;4982560;28;20713;-76
2022/06/01 00:58:42;;;;;;;5.22;3.38;;;;;;;17.21;59.16;94021.56;4983382;28;20041;-76
2022/06/01 01:01:11;;;;;;;7.82;3.92;;;;;;;16.90;60.59;94025.06;4982897;28;20038;-76
2022/06/01 01:03:41;;;;;;;5.03;3.42;;;;;;;17.06;59.77;94031.19;4983358;28;20588;-76
2022/06/01 01:06:16;;;;;;;5.03;3.50;;;;;;;17.08;59.13;94012.03;4981446;28;20338;-76
2022/06/01 01:08:43;;;;;;;4.70;3.20;;;;;;;17.13;59.04;94014.44;4973019;28;20069;-76
2022/06/01 01:11:10;;;;;;;3.28;2.35;;;;;;;16.98;59.27;93993.75;4983833;28;20022;-75
2022/06/01 01:13:38;;;;;;;5.28;2.95;;;;;;;17.09;58.82;94019.75;4984723;28;20034;-76
2022/06/01 01:16:04;;;;;;;6.28;3.20;;;;;;;17.03;58.59;94007.72;4983011;28;20468;-75
2022/06/01 01:18:41;;;;;;;5.32;2.67;;;;;;;16.90;58.65;93992.81;4985290;28;20088;-76
2022/06/01 01:21:37;;;;;;;7.38;3.67;;;;;;;16.93;58.99;94010.91;4977268;28;20062;-76
2022/06/01 01:24:26;;;;;;;3.63;2.55;;;;;;;16.93;58.85;94000.16;4979945;28;20060;-76
2022/06/01 01:26:53;;;;;;;4.25;3.20;;;;;;;16.84;59.04;93986.16;4974117;28;20040;-76
2022/06/01 01:29:40;;;;;;;7.07;3.65;;;;;;;16.86;59.10;93983.91;4967409;28;20049;-76
2022/06/01 01:32:07;;;;;;;6.28;3.17;;;;;;;16.86;58.88;93986.59;4983639;28;20026;-76
2022/06/01 01:34:34;;;;;;;10.00;3.47;;;;;;;16.89;58.37;93983.19;4983827;28;20378;-76
2022/06/01 01:37:04;;;;;;;7.75;3.70;;;;;;;16.91;57.93;93972.91;4982621;28;20478;-76
2022/06/01 01:39:34;;;;;;;8.68;3.47;;;;;;;16.88;58.07;93972.78;4981357;28;20414;-76
2022/06/01 01:41:59;;;;;;;4.93;3.00;;;;;;;16.69;58.75;93965.44;4985278;28;20409;-76
2022/06/01 01:44:34;;;;;;;6.38;3.08;;;;;;;16.65;59.73;93983.38;4983291;28;20034;-76
2022/06/01 01:46:59;;;;;;;4.05;2.88;;;;;;;16.60;58.62;93956.78;4981950;28;20428;-76
2022/06/01 01:49:31;;;;;;;4.38;2.95;;;;;;;16.68;58.68;93967.34;4982733;28;20050;-76
2022/06/01 01:52:00;;;;;;;8.57;2.70;;;;;;;16.68;58.92;93980.78;4974981;28;20035;-75
2022/06/01 01:54:45;;;;;;;4.50;2.53;;;;;;;16.71;58.88;93982.00;4979580;28;20033;-76
2022/06/01 01:57:31;;;;;;;3.88;2.88;;;;;;;16.73;58.41;93985.09;4978800;28;20544;-76
2022/06/01 02:00:04;;;;;;;2.13;1.92;;;;;;;16.67;58.40;93989.19;4983776;28;20046;-75
2022/06/01 02:02:44;;;;;;;3.95;2.38;;;;;;;16.62;58.24;93989.47;4984929;28;20125;-76
2022/06/01 02:06:09;;;;;;;3.42;1.80;;;;;;;16.58;58.62;93999.31;4982169;28;20034;-76
2022/06/01 02:08:48;;;;;;;4.88;2.33;;;;;;;16.48;59.00;93989.06;4980784;28;20030;-75
2022/06/01 02:14:13;;;;;;;3.92;2.35;;;;;;;16.37;59.32;93962.00;4983376;28;20042;-77
2022/06/01 02:16:54;;;;;;;3.45;2.50;;;;;;;16.39;59.68;93969.69;4978303;28;20160;-77
2022/06/01 02:19:24;;;;;;;9.05;2.60;;;;;;;16.39;59.05;93965.09;4983147;28;20100;-76
2022/06/01 02:21:51;;;;;;;7.47;2.45;;;;;;;16.52;58.79;93989.97;4978749;28;20089;-76
2022/06/01 02:24:17;;;;;;;4.03;2.40;;;;;;;16.52;58.35;93981.91;4981645;28;20038;-76
2022/06/01 02:26:43;;;;;;;4.57;3.22;;;;;;;16.38;58.53;93968.16;4985933;28;20350;-76
2022/06/01 02:29:15;;;;;;;4.10;3.60;;;;;;;16.50;58.86;93994.91;4988020;28;20029;-75
2022/06/01 02:31:42;;;;;;;5.05;2.92;;;;;;;16.46;59.47;93996.72;4986557;28;20019;-76
2022/06/01 02:34:09;;;;;;;4.28;2.80;;;;;;;16.24;59.90;93968.50;4985854;28;20031;-76
2022/06/01 02:36:38;;;;;;;7.32;3.15;;;;;;;16.39;59.94;94001.88;4982834;28;20061;-76
2022/06/01 02:39:07;;;;;;;10.25;3.22;;;;;;;16.39;59.90;94001.88;4987004;28;20398;-76
2022/06/01 02:44:17;;;;;;;4.20;2.80;;;;;;;16.37;59.55;94007.63;4987430;28;20380;-75
2022/06/01 02:46:43;;;;;;;5.75;2.67;;;;;;;16.36;59.51;94006.06;4985462;28;20025;-76
2022/06/01 02:49:08;;;;;;;10.45;3.97;;;;;;;16.22;59.56;93986.88;4987793;28;20073;-76
2022/06/01 02:51:34;;;;;;;4.68;3.15;;;;;;;16.27;59.71;93992.78;4982465;28;20693;-75
2022/06/01 02:53:59;;;;;;;5.10;2.78;;;;;;;16.25;59.61;93997.69;4987329;28;20744;-76
2022/06/01 02:56:25;;;;;;;6.20;3.05;;;;;;;16.40;59.06;94006.13;4984772;28;20494;-76
2022/06/01 02:58:51;;;;;;;5.40;2.75;;;;;;;16.26;58.78;93985.06;4983386;28;20487;-76
2022/06/01 03:01:16;;;;;;;4.15;2.70;;;;;;;16.28;58.76;93982.81;4985397;28;20039;-75
2022/06/01 03:03:42;;;;;;;6.38;3.30;;;;;;;16.36;59.07;94002.59;4985765;28;20035;-76
2022/06/01 03:06:08;;;;;;;7.55;2.90;;;;;;;16.30;59.08;93994.78;4986658;28;20057;-76
2022/06/01 03:08:33;;;;;;;5.80;3.22;;;;;;;16.20;59.32;93987.22;4987563;28;20026;-76
2022/06/01 03:10:59;;;;;;;9.00;3.38;;;;;;;16.29;59.51;94009.28;4984975;28;20515;-76
2022/06/01 03:13:24;;;;;;;5.35;3.22;;;;;;;16.28;59.73;94012.34;4988020;28;20034;-76
2022/06/01 03:15:51;;;;;;;6.40;3.70;;;;;;;16.33;60.63;94019.38;4985160;28;20085;-76
2022/06/01 03:18:18;;;;;;;7.35;4.72;;;;;;;16.19;61.27;93993.69;4983628;28;20050;-76
2022/06/01 03:20:43;;;;;;;6.45;4.88;;;;;;;16.42;61.50;94028.06;4975868;28;20334;-75
2022/06/01 03:23:09;;;;;;;6.45;4.22;;;;;;;16.39;61.98;94024.16;4985480;28;20552;-75
2022/06/01 03:25:37;;;;;;;7.88;3.95;;;;;;;16.40;62.48;94020.34;4985546;28;20159;-76
2022/06/01 03:28:03;;;;;;;10.55;5.20;;;;;;;16.46;62.52;94027.03;4980027;28;20376;-76
2022/06/01 03:30:29;;;;;;;10.10;5.53;;;;;;;16.46;62.30;94018.19;4975258;28;20030;-75
2022/06/01 03:32:56;;;;;;;7.18;5.22;;;;;;;16.52;62.48;94027.56;4981069;28;20034;-76
2022/06/01 03:35:24;;;;;;;15.55;5.65;;;;;;;16.57;61.90;94016.56;4985481;28;20153;-75
2022/06/01 03:37:50;;;;;;;17.77;7.88;;;;;;;16.53;62.24;94021.03;4986596;28;20034;-75
2022/06/01 03:40:18;;;;;;;16.42;7.63;;;;;;;16.61;62.57;94031.63;4985644;28;20030;-76
2022/06/01 03:42:44;;;;;;;22.75;9.13;;;;;;;16.57;62.82;94027.31;4986680;28;20034;-76
2022/06/01 03:47:55;;;;;;;20.35;8.82;;;;;;;16.25;64.30;94032.56;4986891;28;20049;-75
2022/06/01 03:50:23;;;;;;;16.15;8.88;;;;;;;16.41;63.64;94031.84;4987568;28;20034;-76
2022/06/01 03:52:49;;;;;;;10.38;6.47;;;;;;;16.49;63.18;94038.97;4983694;28;20041;-76
2022/06/01 03:55:15;;;;;;;8.63;6.22;;;;;;;16.38;62.75;94003.78;4981370;28;20038;-76
2022/06/01 03:57:41;;;;;;;19.58;8.23;;;;;;;16.53;62.79;94019.13;4986987;28;20038;-76
2022/06/01 04:00:11;;;;;;;12.20;7.93;;;;;;;16.44;63.12;94004.31;4984074;28;20129;-76
2022/06/01 04:02:37;;;;;;;11.05;7.45;;;;;;;16.38;63.58;94019.13;4979924;28;20447;-76
2022/06/01 04:05:03;;;;;;;11.13;7.25;;;;;;;16.55;64.42;94026.84;4986775;28;20033;-76
2022/06/01 04:07:29;;;;;;;14.38;8.73;;;;;;;16.67;63.32;94026.78;4983493;28;20108;-76
2022/06/01 04:09:54;;;;;;;17.67;9.98;;;;;;;16.72;63.37;94029.22;4984680;28;20129;-76
2022/06/01 04:12:20;;;;;;;18.45;9.20;;;;;;;16.58;64.02;94028.84;4983371;28;20038;-76
2022/06/01 04:14:46;;;;;;;15.32;9.80;;;;;;;16.44;65.17;94023.09;4982809;28;20038;-76
2022/06/01 04:17:11;;;;;;;17.17;11.55;;;;;;;16.66;64.71;94034.06;4984832;28;20034;-76
2022/06/01 04:19:37;;;;;;;17.45;9.00;;;;;;;16.42;65.62;94044.94;4983590;28;20073;-76
2022/06/01 04:22:02;;;;;;;14.25;9.15;;;;;;;16.61;64.70;94020.13;4982092;28;20117;-76
2022/06/01 04:24:31;;;;;;;14.30;8.27;;;;;;;16.82;63.75;94034.06;4983690;28;20049;-76
2022/06/01 04:26:57;;;;;;;12.25;8.48;;;;;;;16.75;64.68;94032.00;4983537;28;20044;-76
2022/06/01 04:29:23;;;;;;;15.52;9.25;;;;;;;16.94;63.84;94039.34;4985966;28;20038;-75
2022/06/01 04:31:49;;;;;;;14.25;9.27;;;;;;;16.75;64.54;94039.25;4987313;28;20019;-75
2022/06/01 04:34:16;;;;;;;17.15;9.63;;;;;;;16.64;65.23;94022.09;4985586;28;20210;-76
2022/06/01 04:36:41;;;;;;;15.02;9.02;;;;;;;16.89;65.19;94036.94;4983311;28;20505;-76
2022/06/01 04:39:07;;;;;;;15.40;9.50;;;;;;;16.60;66.58;94045.41;4982765;28;20049;-76
2022/06/01 04:41:33;;;;;;;17.13;9.73;;;;;;;16.14;68.57;94044.13;4982875;28;20080;-76
2022/06/01 04:43:59;;;;;;;28.45;11.40;;;;;;;15.85;68.78;94013.06;4982768;28;20037;-76
2022/06/01 04:46:24;;;;;;;18.90;11.27;;;;;;;15.76;70.29;94045.41;4987928;28;20611;-76
2022/06/01 04:48:50;;;;;;;17.63;11.63;;;;;;;15.67;70.53;94047.44;4986774;28;20050;-76
2022/06/01 04:51:17;;;;;;;17.83;11.15;;;;;;;15.63;70.88;94051.91;4982643;28;20046;-76
2022/06/01 04:53:44;;;;;;;17.73;11.38;;;;;;;15.68;70.59;94021.41;4989833;28;20104;-76
2022/06/01 04:56:13;;;;;;;20.88;10.43;;;;;;;16.02;68.64;94042.31;4984807;28;20441;-76
2022/06/01 04:58:39;;;;;;;18.35;11.23;;;;;;;16.31;68.37;94059.97;4984179;28;20029;-75
2022/06/01 05:01:05;;;;;;;16.58;10.63;;;;;;;16.51;67.48;94060.91;4986964;28;20218;-76
2022/06/01 05:03:31;;;;;;;15.80;10.63;;;;;;;16.73;66.36;94061.09;4984666;28;20034;-77
2022/06/01 05:05:56;;;;;;;13.00;9.75;;;;;;;16.73;65.49;94060.31;4981659;28;20443;-75
2022/06/01 05:08:22;;;;;;;13.30;9.70;;;;;;;16.82;65.23;94057.47;4985706;28;20070;-76
2022/06/01 05:10:47;;;;;;;15.65;10.32;;;;;;;16.90;64.69;94046.53;4982219;28;20034;-76
2022/06/01 05:13:17;;;;;;;16.52;10.13;;;;;;;17.00;64.03;94047.94;4984201;28;20526;-77
2022/06/01 05:15:49;;;;;;;12.60;8.90;;;;;;;17.20;63.40;94067.63;4983694;28;20042;-76
2022/06/01 05:18:15;;;;;;;15.73;9.27;;;;;;;17.21;63.17;94050.38;4981776;28;20601;-76
2022/06/01 05:20:41;;;;;;;15.95;11.70;;;;;;;17.46;63.16;94068.63;4984843;28;20037;-77
2022/06/01 05:23:06;;;;;;;17.52;10.15;;;;;;;17.56;62.82;94073.47;4980463;28;20034;-76
2022/06/01 05:25:31;;;;;;;17.33;11.15;;;;;;;17.61;62.88;94077.78;4981978;28;20018;-76
2022/06/01 05:27:57;;;;;;;16.13;10.80;;;;;;;17.55;62.46;94063.06;4982496;28;20026;-76
2022/06/01 05:30:22;;;;;;;17.77;11.50;;;;;;;17.49;62.76;94062.56;4983307;28;20033;-76
2022/06/01 05:32:47;;;;;;;19.17;10.60;;;;;;;17.54;63.08;94074.97;4983861;28;20033;-76
2022/06/01 05:35:13;;;;;;;19.60;10.38;;;;;;;17.49;62.55;94051.03;4983859;28;20046;-76
2022/06/01 05:37:38;;;;;;;16.75;10.38;;;;;;;17.72;62.72;94068.06;4981465;28;20050;-76
2022/06/01 05:40:04;;;;;;;18.15;10.95;;;;;;;17.77;64.03;94062.41;4984614;28;20050;-76
2022/06/01 05:42:30;;;;;;;18.80;11.45;;;;;;;18.10;61.87;94053.09;4985076;28;20042;-76
2022/06/01 05:44:55;;;;;;;17.77;11.27;;;;;;;18.04;62.60;94060.66;4984273;28;20546;-76
2022/06/01 05:47:21;;;;;;;15.88;11.50;;;;;;;18.10;62.97;94056.56;4981273;28;20038;-76
2022/06/01 05:49:48;;;;;;;16.90;10.05;;;;;;;18.12;63.26;94040.06;4985570;28;20031;-76
2022/06/01 05:52:18;;;;;;;14.07;10.52;;;;;;;18.10;62.85;94042.31;4981754;28;20110;-76
2022/06/01 05:54:43;;;;;;;17.17;10.18;;;;;;;17.92;64.44;94034.66;4984450;28;20129;-77
2022/06/01 05:57:09;;;;;;;17.23;10.98;;;;;;;17.84;65.96;94054.50;4985725;28;20181;-76
2022/06/01 05:59:34;;;;;;;18.80;10.63;;;;;;;18.01;65.33;94048.72;4986444;28;20463;-76
2022/06/01 06:01:59;;;;;;;18.38;10.73;;;;;;;18.39;64.01;94049.81;4989379;28;20037;-76
2022/06/01 06:04:25;;;;;;;15.73;10.60;;;;;;;18.21;64.98;94025.25;4984787;28;20096;-76
2022/06/01 06:06:50;;;;;;;16.13;10.88;;;;;;;18.12;65.39;94056.22;4988686;28;20474;-76
2022/06/01 06:09:15;;;;;;;18.25;10.98;;;;;;;18.28;65.12;94048.84;4979345;28;20062;-75
2022/06/01 06:11:41;;;;;;;15.30;9.88;;;;;;;18.42;65.40;94041.03;4985584;28;20052;-76
2022/06/01 06:14:07;;;;;;;20.10;10.32;;;;;;;18.53;64.50;94036.59;4987797;28;20030;-76
2022/06/01 06:16:36;;;;;;;16.40;9.95;;;;;;;18.91;63.65;94057.34;4988211;28;20037;-76
2022/06/01 06:19:02;;;;;;;16.20;9.82;;;;;;;19.16;61.04;94052.34;4988938;28;20038;-76
2022/06/01 06:21:30;;;;;;;19.65;10.13;;;;;;;19.34;61.13;94056.09;4987833;28;20037;-76
2022/06/01 06:24:06;;;;;;;11.45;8.55;;;;;;;19.02;61.17;94062.91;4987082;28;20038;-76
2022/06/01 06:26:32;;;;;;;15.13;9.45;;;;;;;19.37;59.92;94058.06;5002373;28;20045;-77
2022/06/01 06:29:01;;;;;;;18.42;9.32;;;;;;;18.86;61.13;94052.25;4982380;28;20473;-75
2022/06/01 06:31:26;;;;;;;12.98;9.20;;;;;;;18.83;60.24;94034.88;4981649;28;20026;-75
2022/06/01 06:33:51;;;;;;;14.10;8.90;;;;;;;18.81;61.66;94033.69;4989593;28;20026;-76
2022/06/01 06:36:17;;;;;;;12.43;8.13;;;;;;;19.29;59.69;94034.84;4984465;28;20038;-77
2022/06/01 06:38:42;;;;;;;18.92;8.73;;;;;;;19.70;58.80;94036.59;4987654;28;20378;-76
2022/06/01 06:41:10;;;;;;;23.08;8.55;;;;;;;19.72;58.56;94033.56;4986808;28;20034;-76
2022/06/01 06:43:36;;;;;;;10.70;7.80;;;;;;;19.26;58.44;94046.34;4984397;28;20100;-76
2022/06/01 06:46:15;;;;;;;10.10;8.00;;;;;;;19.27;58.81;94039.81;4985919;28;20121;-76
2022/06/01 06:48:41;;;;;;;13.07;7.80;;;;;;;19.69;57.03;94037.75;4986499;28;20073;-76
2022/06/01 06:51:07;;;;;;;9.23;7.45;;;;;;;20.06;57.10;94034.38;4984146;28;20052;-76
2022/06/01 06:53:33;;;;;;;10.35;8.00;;;;;;;20.07;55.95;94031.31;4988607;28;20522;-75
2022/06/01 06:55:58;;;;;;;13.32;7.65;;;;;;;19.69;56.54;94016.19;4987041;28;20485;-76
2022/06/01 06:58:24;;;;;;;11.30;7.53;;;;;;;19.77;56.33;94024.34;4988281;28;20042;-76
2022/06/01 07:00:50;;;;;;;11.45;7.25;;;;;;;20.29;54.43;94032.34;4985356;28;20405;-76
2022/06/01 07:03:16;;;;;;;11.98;7.63;;;;;;;20.37;55.45;94023.19;4982037;28;20049;-76
2022/06/01 07:08:27;;;;;;;15.73;7.75;;;;;;;19.86;57.01;94030.25;4981951;28;20042;-76
2022/06/01 07:10:53;;;;;;;9.57;6.97;;;;;;;19.75;56.86;94024.72;4986425;28;20045;-75
2022/06/01 07:13:19;;;;;;;12.48;6.53;;;;;;;20.13;55.66;94031.78;4987373;28;20047;-75
2022/06/01 07:15:44;;;;;;;11.63;6.93;;;;;;;19.80;56.26;94026.34;4978644;28;20417;-76
2022/06/01 07:18:10;;;;;;;16.60;6.47;;;;;;;19.80;56.78;94032.50;4981127;28;20112;-77
2022/06/01 07:20:35;;;;;;;11.15;7.03;;;;;;;19.86;57.44;94024.84;4980433;28;20381;-76
2022/06/01 07:23:01;;;;;;;10.82;6.18;;;;;;;20.29;56.92;94028.91;4980052;28;20045;-76
2022/06/01 07:25:28;;;;;;;14.85;7.13;;;;;;;20.03;55.69;94029.72;4981654;28;20543;-76
2022/06/01 07:27:54;;;;;;;16.35;7.45;;;;;;;19.50;56.48;94012.81;4984046;28;20113;-75
2022/06/01 07:30:20;;;;;;;12.90;7.18;;;;;;;20.23;55.76;94025.75;4983510;28;20389;-77
2022/06/01 07:32:46;;;;;;;12.75;7.10;;;;;;;20.09;56.26;94010.09;4985672;28;20038;-76
2022/06/01 07:35:13;;;;;;;9.77;6.28;;;;;;;20.28;54.88;94032.75;4983703;28;20034;-77
2022/06/01 07:43:08;;;;;;;10.17;6.33;;;;;;;20.50;53.81;94021.78;4979784;28;20092;-73
2022/06/01 07:45:45;;;;;;;12.88;6.55;;;;;;;20.46;53.90;94023.69;4979166;28;20101;-73
2022/06/01 07:48:11;;;;;;;10.02;6.35;;;;;;;20.66;53.49;94012.69;4980740;28;20046;-73
2022/06/01 07:50:37;;;;;;;14.07;8.32;;;;;;;20.41;53.72;94029.41;4979053;28;20092;-73
2022/06/01 07:53:06;;;;;;;10.82;6.47;;;;;;;20.63;53.54;94021.53;4980420;28;20722;-73
2022/06/01 07:55:32;;;;;;;12.80;6.20;;;;;;;20.83;53.51;94017.44;4978580;28;20409;-74
2022/06/01 07:57:57;;;;;;;15.15;7.10;;;;;;;20.76;52.10;94012.00;4981843;28;20039;-73
2022/06/01 08:00:23;;;;;;;8.57;6.35;;;;;;;21.00;52.78;94019.56;4982754;28;20868;-73
2022/06/01 08:02:49;;;;;;;12.25;7.13;;;;;;;20.44;54.28;94007.06;4982570;28;20045;-73
2022/06/01 08:05:17;;;;;;;15.45;8.02;;;;;;;20.64;53.87;94023.06;4971919;28;20117;-74
2022/06/01 08:07:43;;;;;;;11.32;6.65;;;;;;;20.97;54.26;94015.69;4982517;28;20543;-74
2022/06/01 08:10:11;;;;;;;12.20;8.00;;;;;;;20.85;54.14;94025.97;4973762;28;20047;-74
2022/06/01 08:15:21;;;;;;;14.95;7.60;;;;;;;20.58;54.08;94007.19;4980859;28;20156;-75
2022/06/01 08:17:47;;;;;;;10.85;7.22;;;;;;;20.98;51.99;93990.19;4983943;28;20113;-74
2022/06/01 08:20:15;;;;;;;10.93;7.22;;;;;;;21.31;51.98;94020.97;4981266;28;20038;-75
2022/06/01 08:22:41;;;;;;;14.35;8.48;;;;;;;20.89;52.91;94027.59;4985659;28;20113;-75
2022/06/01 08:25:09;;;;;;;15.10;7.78;;;;;;;20.57;52.88;94002.94;4980225;28;20052;-74
2022/06/01 08:27:35;;;;;;;10.30;7.35;;;;;;;20.98;53.13;94008.34;4982081;28;20088;-74
2022/06/01 08:30:00;;;;;;;11.43;7.13;;;;;;;21.17;52.24;94000.00;4985959;28;20035;-75
2022/06/01 08:32:26;;;;;;;13.27;7.38;;;;;;;21.33;52.56;94019.44;4981328;28;20853;-74
2022/06/01 08:34:51;;;;;;;13.68;7.38;;;;;;;21.23;52.38;94020.13;4981909;28;20033;-74
2022/06/01 08:37:17;;;;;;;9.07;6.70;;;;;;;20.96;52.09;94016.06;4978875;28;20041;-75
2022/06/01 08:39:43;;;;;;;10.35;7.50;;;;;;;21.30;52.49;94022.91;4979608;28;20659;-75
2022/06/01 08:42:13;;;;;;;11.18;7.25;;;;;;;21.35;51.10;94014.44;4972150;28;20480;-76
2022/06/01 08:44:41;;;;;;;10.13;6.28;;;;;;;21.55;50.79;94016.91;4981352;28;20285;-75
2022/06/01 08:47:09;;;;;;;12.32;6.53;;;;;;;21.68;50.31;94028.97;4982104;28;20106;-75
2022/06/01 08:49:37;;;;;;;12.48;6.55;;;;;;;21.51;49.31;94016.84;4981947;28;20042;-75
2022/06/01 08:52:04;;;;;;;14.50;6.72;;;;;;;21.52;50.43;93971.63;4979412;28;20498;-76
2022/06/01 08:54:29;;;;;;;11.15;6.35;;;;;;;21.67;51.16;94005.75;4977558;28;20121;-76
2022/06/01 08:57:01;;;;;;;7.53;5.57;;;;;;;21.57;50.53;94023.50;4982162;28;20042;-76
2022/06/01 08:59:50;;;;;;;15.73;5.88;;;;;;;21.78;50.73;94022.84;4984138;28;20060;-75
2022/06/01 09:02:22;;;;;;;10.52;6.28;;;;;;;21.89;48.44;94018.28;4980920;28;20092;-77
2022/06/01 09:04:54;;;;;;;7.18;5.20;;;;;;;22.06;49.36;94022.97;4982328;28;20030;-75
2022/06/01 09:07:26;;;;;;;11.15;6.15;;;;;;;21.90;48.58;94019.81;4964913;28;20035;-77
2022/06/01 09:10:01;;;;;;;11.63;5.15;;;;;;;21.78;47.64;94018.22;4981485;28;20353;-76
2022/06/01 09:12:26;;;;;;;8.48;4.18;;;;;;;21.74;47.92;94020.13;4986065;28;21006;-76
2022/06/01 09:14:56;;;;;;;6.57;3.47;;;;;;;21.61;44.54;94018.13;4984533;28;20137;-76
2022/06/01 09:17:21;;;;;;;4.32;2.47;;;;;;;22.01;45.04;94015.22;4981703;28;20642;-76
2022/06/01 09:22:38;;;;;;;7.82;4.10;;;;;;;22.33;44.26;93998.34;4981569;28;20045;-76
2022/06/01 09:25:09;;;;;;;5.15;4.05;;;;;;;22.23;45.37;93978.97;4950032;28;20100;-75
2022/06/01 09:27:40;;;;;;;9.30;5.05;;;;;;;22.30;47.62;94000.66;4981918;28;20030;-75
2022/06/01 09:30:19;;;;;;;8.60;4.80;;;;;;;22.32;45.92;94004.91;4986672;28;20042;-75
2022/06/01 09:33:15;;;;;;;7.93;4.57;;;;;;;22.53;47.72;94013.88;4989012;28;20096;-75
2022/06/01 09:35:42;;;;;;;;;;;;;;;22.44;43.62;94007.28;4986160;28;20428;-76
2022/06/01 09:38:34;;;;;;;6.93;3.47;;;;;;;22.27;43.76;94000.66;4988705;28;19921;-76
2022/06/01 09:41:05;;;;;;;8.40;4.57;;;;;;;22.28;45.05;94002.19;4987763;28;20040;-75
2022/06/01 09:43:30;;;;;;;6.68;4.53;;;;;;;22.43;45.91;93987.53;4995401;28;20121;-75
2022/06/01 09:45:56;;;;;;;7.18;4.38;;;;;;;22.39;45.82;93980.56;4990156;28;20041;-76
2022/06/01 09:48:27;;;;;;;11.68;4.57;;;;;;;22.42;44.76;94006.88;4989689;28;20046;-75
2022/06/01 09:50:58;;;;;;;9.35;4.53;;;;;;;22.56;44.47;94004.19;4989635;28;20046;-75
2022/06/01 09:53:34;;;;;;;5.90;3.60;;;;;;;22.70;43.72;93998.81;4984392;28;20042;-75
2022/06/01 09:56:03;;;;;;;8.15;3.28;;;;;;;22.70;44.10;93996.88;4988184;28;20191;-75
2022/06/01 10:07:28;;;;;;;5.95;3.30;;;;;;;23.04;42.01;93982.97;4985442;28;20045;-75
2022/06/01 10:10:04;;;;;;;5.32;3.88;;;;;;;23.04;41.97;93996.53;4989378;28;20041;-75
2022/06/01 10:12:41;;;;;;;5.53;3.72;;;;;;;23.30;42.19;93987.22;4989004;28;20033;-76
2022/06/01 10:15:23;;;;;;;4.20;3.22;;;;;;;23.55;44.02;93982.56;4984270;28;20049;-76
2022/06/01 10:17:56;;;;;;;4.43;3.22;;;;;;;23.54;42.20;93987.22;4988328;28;20034;-76
2022/06/01 10:20:43;;;;;;;7.57;2.90;;;;;;;23.69;42.29;93982.53;4987004;28;20133;-76
2022/06/01 10:23:19;;;;;;;5.20;2.97;;;;;;;23.42;40.21;93986.81;4988377;28;20227;-76
2022/06/01 10:25:53;;;;;;;4.32;3.03;;;;;;;23.02;42.67;93990.75;4983972;28;20026;-75
2022/06/01 10:28:25;;;;;;;7.20;3.78;;;;;;;23.13;41.90;93976.00;4984276;28;20101;-74
2022/06/01 10:30:55;;;;;;;8.70;3.45;;;;;;;23.43;42.95;93982.94;4982078;28;20040;-76
2022/06/01 10:33:33;;;;;;;5.25;3.30;;;;;;;23.11;41.27;93972.91;4986921;28;20101;-75
2022/06/01 10:36:17;;;;;;;4.80;3.13;;;;;;;23.02;41.82;93986.09;4987766;28;20040;-75
2022/06/01 10:38:55;;;;;;;3.65;2.78;;;;;;;23.12;41.03;93977.16;4984793;28;20045;-76
2022/06/01 10:41:36;;;;;;;4.75;3.33;;;;;;;23.35;40.45;93970.56;4996163;28;20098;-76
2022/06/01 10:44:09;;;;;;;7.53;3.50;;;;;;;23.34;41.31;93977.91;4984873;28;20098;-75
2022/06/01 10:46:50;;;;;;;5.05;3.00;;;;;;;23.45;41.25;93980.63;4982291;28;20033;-76
2022/06/01 10:49:40;;;;;;;7.30;4.00;;;;;;;23.26;41.11;93979.09;4977784;28;20145;-76
2022/06/01 10:52:11;;;;;;;4.70;2.72;;;;;;;23.21;39.62;93978.72;4982290;28;20527;-76
2022/06/01 10:54:49;;;;;;;4.63;3.08;;;;;;;23.38;40.96;93970.53;4980170;28;20050;-76
2022/06/01 10:57:21;;;;;;;5.03;2.55;;;;;;;23.44;39.20;93968.97;4976443;28;20043;-75
2022/06/01 10:59:48;;;;;;;7.50;2.80;;;;;;;23.56;43.57;93973.28;4975540;28;20093;-76
2022/06/01 11:02:39;;;;;;;4.60;2.72;;;;;;;23.71;38.44;93972.03;4976527;28;20034;-76
2022/06/01 11:05:13;;;;;;;4.18;2.45;;;;;;;24.12;40.20;93969.59;4983291;28;20076;-76
2022/06/01 11:07:44;;;;;;;6.70;2.63;;;;;;;24.12;38.71;93966.09;4980639;28;20033;-75
2022/06/01 11:10:24;;;;;;;3.70;2.38;;;;;;;24.16;38.48;93943.19;4974820;28;20039;-74
2022/06/01 11:13:04;;;;;;;7.03;3.10;;;;;;;24.47;37.61;93957.00;4973343;28;20042;-75
2022/06/01 11:15:44;;;;;;;4.72;2.20;;;;;;;24.23;36.95;93947.81;4978320;28;20284;-76
2022/06/01 11:18:41;;;;;;;12.30;3.38;;;;;;;24.36;36.85;93957.81;4979222;28;20676;-75
2022/06/01 11:21:29;;;;;;;5.60;2.92;;;;;;;24.37;36.40;93942.28;4981928;28;20634;-76
2022/06/01 11:24:00;;;;;;;3.78;2.50;;;;;;;24.64;36.61;93951.44;4982157;28;20493;-76
2022/06/01 11:26:55;;;;;;;3.85;2.50;;;;;;;24.41;35.66;93905.00;4981827;28;20046;-75
2022/06/01 11:29:42;;;;;;;3.20;2.33;;;;;;;24.32;36.70;93948.16;4984176;28;20042;-75
2022/06/01 11:32:18;;;;;;;4.70;2.10;;;;;;;24.72;36.24;93941.31;4984802;28;20025;-76
2022/06/01 11:35:03;;;;;;;9.32;2.22;;;;;;;24.80;35.25;93942.81;4988933;28;20065;-76
2022/06/01 11:37:35;;;;;;;6.03;2.22;;;;;;;24.33;35.87;93936.13;4984439;28;20042;-75
2022/06/01 11:40:15;;;;;;;2.90;2.00;;;;;;;24.32;34.78;93940.00;4997931;28;20121;-75
2022/06/01 11:42:48;;;;;;;6.68;4.10;;;;;;;24.29;35.38;93936.13;4984967;28;20046;-75
2022/06/01 11:45:19;;;;;;;9.95;2.30;;;;;;;23.97;35.20;93902.88;4984978;28;20042;-73
2022/06/01 11:47:54;;;;;;;3.80;2.58;;;;;;;24.78;39.64;93940.47;4972848;28;20135;-75
2022/06/01 11:50:58;;;;;;;2.83;1.80;;;;;;;24.95;35.93;93932.59;4986692;28;20527;-75
2022/06/01 11:53:29;;;;;;;13.35;2.10;;;;;;;24.60;34.39;93939.81;4990983;28;20442;-75
2022/06/01 11:56:13;;;;;;;4.97;1.95;;;;;;;24.42;34.24;93933.72;4984050;28;20490;-75
2022/06/01 11:58:50;;;;;;;5.63;2.55;;;;;;;24.34;33.81;93921.34;5003531;28;20060;-75
2022/06/01 12:01:31;;;;;;;3.80;1.85;;;;;;;24.89;35.52;93923.31;4978544;28;20038;-75
2022/06/01 12:04:18;;;;;;;2.45;2.00;;;;;;;25.19;40.86;93915.25;4982857;28;20295;-75
2022/06/01 12:07:19;;;;;;;5.72;2.13;;;;;;;25.13;33.27;93922.31;4973786;28;20030;-75
2022/06/01 12:09:50;;;;;;;2.63;1.50;;;;;;;24.86;32.86;93922.16;4981765;28;20041;-75
2022/06/01 12:12:32;;;;;;;2.70;1.67;;;;;;;24.94;33.70;93918.19;4987790;28;20070;-75
2022/06/01 12:15:29;;;;;;;2.80;2.35;;;;;;;24.90;32.42;93911.25;4982230;28;20034;-75